createdAt,value
2022-12-11T00:00:10.215Z,5
2022-12-11T00:10:10.297Z,5
2022-12-11T00:20:10.207Z,6
2022-12-11T00:30:10.284Z,6
2022-12-11T00:40:10.217Z,6
2022-12-11T00:50:10.292Z,6
2022-12-11T01:00:10.227Z,6
2022-12-11T01:10:00.140Z,5.5
2022-12-11T01:20:00.258Z,6
2022-12-11T01:30:00.353Z,5.5
2022-12-11T01:40:00.223Z,5
2022-12-11T01:50:00.340Z,6
2022-12-11T02:00:00.241Z,6
2022-12-11T02:10:00.357Z,6
2022-12-11T02:20:00.235Z,5.5
2022-12-11T02:30:00.349Z,5.5
2022-12-11T02:40:00.218Z,5.5
2022-12-11T02:50:00.365Z,5.5
2022-12-11T03:00:00.447Z,5.5
2022-12-11T03:10:00.368Z,5.5
2022-12-11T03:20:00.442Z,6
2022-12-11T03:30:00.355Z,5.5
2022-12-11T03:40:00.434Z,5
2022-12-11T03:50:00.373Z,5
2022-12-11T04:00:00.446Z,5
2022-12-11T04:10:00.496Z,6
2022-12-11T04:20:00.441Z,6
2022-12-11T04:30:00.357Z,6
2022-12-11T04:40:00.479Z,6
2022-12-11T04:50:00.375Z,6
2022-12-11T05:00:00.457Z,6
2022-12-11T05:10:00.577Z,6
2022-12-11T05:20:00.468Z,6
2022-12-11T05:30:00.606Z,6
2022-12-11T05:40:00.461Z,6
2022-12-11T05:50:00.575Z,6
2022-12-11T06:00:00.433Z,6
2022-12-11T06:10:00.580Z,5.5
2022-12-11T06:20:00.438Z,5
2022-12-11T06:30:00.584Z,5
2022-12-11T06:40:00.658Z,4.5
2022-12-11T06:50:00.553Z,5
2022-12-11T07:00:00.623Z,5
2022-12-11T07:10:07.529Z,5
2022-12-11T07:20:00.651Z,5
2022-12-11T07:30:00.548Z,5.5
2022-12-11T07:40:00.623Z,5
2022-12-11T07:50:00.564Z,5
2022-12-11T08:00:00.652Z,5
2022-12-11T08:10:00.761Z,5
2022-12-11T08:20:00.619Z,4.5
2022-12-11T08:30:00.746Z,4.5
2022-12-11T08:40:00.633Z,4.5
2022-12-11T08:50:00.782Z,4.5
2022-12-11T09:00:00.646Z,4.5
2022-12-11T09:10:00.760Z,4.5
2022-12-11T09:20:00.638Z,5
2022-12-11T09:30:00.774Z,5
2022-12-11T09:40:05.694Z,5
2022-12-11T09:50:00.786Z,5
2022-12-11T10:00:04.689Z,5
2022-12-11T10:10:00.788Z,5
2022-12-11T10:20:00.981Z,5
2022-12-11T10:30:00.785Z,5
2022-12-11T10:40:00.861Z,5.5
2022-12-11T10:50:00.773Z,5.5
2022-12-11T11:00:00.881Z,5.5
2022-12-11T11:10:00.800Z,5
2022-12-11T11:20:00.900Z,5
2022-12-11T11:30:01.017Z,6
2022-12-11T11:40:00.887Z,6
2022-12-11T11:50:01.011Z,6
2022-12-11T12:00:00.865Z,6
2022-12-11T12:10:07.071Z,6
2022-12-11T12:20:00.922Z,6.5
2022-12-11T12:30:01.008Z,6.5
2022-12-11T12:40:01.012Z,6.5
2022-12-11T12:50:00.840Z,6.5
2022-12-11T13:00:01.091Z,6.5
2022-12-11T13:10:00.863Z,6.5
2022-12-11T13:20:01.012Z,6.5
2022-12-11T13:30:00.936Z,6.5
2022-12-11T13:40:01.095Z,6.5
2022-12-11T13:50:00.943Z,6.5
2022-12-11T14:00:01.128Z,6.5
2022-12-11T14:10:00.970Z,5.5
2022-12-11T14:20:01.086Z,5.5
2022-12-11T14:30:01.000Z,5.5
2022-12-11T14:40:01.085Z,5.5
2022-12-11T14:50:01.165Z,5.5
2022-12-11T15:00:01.104Z,5.5
2022-12-11T15:10:01.140Z,6
2022-12-11T15:20:01.093Z,5.5
2022-12-11T15:30:01.144Z,5.5
2022-12-11T15:40:01.041Z,5.5
2022-12-11T15:50:01.118Z,5.5
2022-12-11T16:00:01.503Z,5.5
2022-12-11T16:10:01.189Z,5
2022-12-11T16:20:01.522Z,4.5
2022-12-11T16:30:01.767Z,4.5
2022-12-11T16:40:07.496Z,4.5
2022-12-11T16:50:07.502Z,4.5
2022-12-11T17:00:07.464Z,4.5
2022-12-11T17:10:01.240Z,4.5
2022-12-11T17:20:01.303Z,4.5
2022-12-11T17:30:01.612Z,4.5
2022-12-11T17:40:01.324Z,4.5
2022-12-11T17:50:01.222Z,4.5
2022-12-11T18:00:01.292Z,4.5
2022-12-11T18:10:01.221Z,4.5
2022-12-11T18:20:01.292Z,4.5
2022-12-11T18:30:01.435Z,4.5
2022-12-11T18:40:01.284Z,4.5
2022-12-11T18:50:07.277Z,4.5
2022-12-11T19:00:01.269Z,4
2022-12-11T19:10:01.412Z,4
2022-12-11T19:20:09.134Z,4
2022-12-11T19:30:01.777Z,4
2022-12-11T19:40:01.621Z,3.5
2022-12-11T19:50:01.378Z,3.5
2022-12-11T20:00:01.617Z,3.5
2022-12-11T20:10:01.609Z,3.5
2022-12-11T20:20:01.430Z,3.5
2022-12-11T20:30:01.396Z,3.5
2022-12-11T20:40:01.418Z,3.5
2022-12-11T20:50:01.597Z,3.5
2022-12-11T21:00:01.419Z,3.5
2022-12-11T21:10:01.563Z,3.5
2022-12-11T21:20:01.423Z,3.5
2022-12-11T21:30:01.561Z,3.5
2022-12-11T21:40:01.426Z,3
2022-12-11T21:50:01.523Z,3
2022-12-11T22:00:01.425Z,3
2022-12-11T22:10:01.535Z,3
2022-12-11T22:20:01.603Z,3
2022-12-11T22:30:01.524Z,3
2022-12-11T22:40:01.612Z,3
2022-12-11T22:50:07.470Z,3
2022-12-11T23:00:07.616Z,2.5
2022-12-11T23:10:01.484Z,3
2022-12-11T23:20:07.000Z,1.5
2022-12-11T23:30:01.557Z,2
2022-12-11T23:40:01.651Z,2
2022-12-11T23:50:01.526Z,2
